sensor_id;sensor_type;location;lat;lon;timestamp;P1;durP1;ratioP1;P2;durP2;ratioP2
14992;SDS011;7592;51.088;13.732;2023-02-15T00:00:43;70.67;;;34.80;;
14992;SDS011;7592;51.088;13.732;2023-02-15T00:05:35;55.07;;;31.07;;
14992;SDS011;7592;51.088;13.732;2023-02-15T00:10:27;61.60;;;32.23;;
14992;SDS011;7592;51.088;13.732;2023-02-15T00:15:19;56.70;;;30.87;;
14992;SDS011;7592;51.088;13.732;2023-02-15T00:20:11;68.20;;;36.27;;
14992;SDS011;7592;51.088;13.732;2023-02-15T00:25:03;64.80;;;32.47;;
14992;SDS011;7592;51.088;13.732;2023-02-15T00:29:55;63.10;;;31.67;;
14992;SDS011;7592;51.088;13.732;2023-02-15T00:34:47;61.20;;;33.10;;
14992;SDS011;7592;51.088;13.732;2023-02-15T00:39:40;63.03;;;35.23;;
14992;SDS011;7592;51.088;13.732;2023-02-15T00:44:32;65.77;;;32.80;;
14992;SDS011;7592;51.088;13.732;2023-02-15T00:49:24;61.13;;;31.50;;
14992;SDS011;7592;51.088;13.732;2023-02-15T00:54:17;59.97;;;31.73;;
14992;SDS011;7592;51.088;13.732;2023-02-15T00:59:10;59.07;;;31.40;;
14992;SDS011;7592;51.088;13.732;2023-02-15T01:04:02;55.27;;;29.43;;
14992;SDS011;7592;51.088;13.732;2023-02-15T01:08:54;57.17;;;29.97;;
14992;SDS011;7592;51.088;13.732;2023-02-15T01:13:46;61.20;;;30.27;;
14992;SDS011;7592;51.088;13.732;2023-02-15T01:18:38;62.80;;;32.37;;
14992;SDS011;7592;51.088;13.732;2023-02-15T01:23:30;58.13;;;29.27;;
14992;SDS011;7592;51.088;13.732;2023-02-15T01:28:23;60.83;;;30.93;;
14992;SDS011;7592;51.088;13.732;2023-02-15T01:33:15;54.70;;;28.03;;
14992;SDS011;7592;51.088;13.732;2023-02-15T01:38:12;53.80;;;29.60;;
14992;SDS011;7592;51.088;13.732;2023-02-15T01:43:08;60.93;;;29.47;;
14992;SDS011;7592;51.088;13.732;2023-02-15T01:48:05;53.33;;;27.47;;
14992;SDS011;7592;51.088;13.732;2023-02-15T01:53:25;56.17;;;28.60;;
14992;SDS011;7592;51.088;13.732;2023-02-15T01:58:22;61.03;;;28.23;;
14992;SDS011;7592;51.088;13.732;2023-02-15T02:03:20;55.97;;;28.97;;
14992;SDS011;7592;51.088;13.732;2023-02-15T02:15:14;53.40;;;26.97;;
14992;SDS011;7592;51.088;13.732;2023-02-15T02:20:26;53.03;;;26.60;;
14992;SDS011;7592;51.088;13.732;2023-02-15T02:25:45;59.70;;;28.77;;
14992;SDS011;7592;51.088;13.732;2023-02-15T02:36:20;50.07;;;26.33;;
14992;SDS011;7592;51.088;13.732;2023-02-15T02:41:34;60.40;;;29.33;;
14992;SDS011;7592;51.088;13.732;2023-02-15T02:46:34;59.83;;;27.87;;
14992;SDS011;7592;51.088;13.732;2023-02-15T02:52:02;54.10;;;26.67;;
14992;SDS011;7592;51.088;13.732;2023-02-15T02:56:57;60.57;;;29.07;;
14992;SDS011;7592;51.088;13.732;2023-02-15T03:01:58;59.60;;;30.00;;
14992;SDS011;7592;51.088;13.732;2023-02-15T03:07:14;58.27;;;28.10;;
14992;SDS011;7592;51.088;13.732;2023-02-15T03:12:24;61.50;;;29.43;;
14992;SDS011;7592;51.088;13.732;2023-02-15T03:17:21;57.50;;;29.80;;
14992;SDS011;7592;51.088;13.732;2023-02-15T03:22:18;52.37;;;28.53;;
14992;SDS011;7592;51.088;13.732;2023-02-15T03:27:16;63.73;;;29.37;;
14992;SDS011;7592;51.088;13.732;2023-02-15T03:32:13;61.67;;;29.83;;
14992;SDS011;7592;51.088;13.732;2023-02-15T03:42:22;69.67;;;31.80;;
14992;SDS011;7592;51.088;13.732;2023-02-15T03:47:20;62.43;;;28.13;;
14992;SDS011;7592;51.088;13.732;2023-02-15T03:52:17;54.13;;;27.73;;
14992;SDS011;7592;51.088;13.732;2023-02-15T04:02:22;58.17;;;27.93;;
14992;SDS011;7592;51.088;13.732;2023-02-15T04:07:17;64.03;;;30.83;;
14992;SDS011;7592;51.088;13.732;2023-02-15T04:12:09;56.70;;;27.90;;
14992;SDS011;7592;51.088;13.732;2023-02-15T04:17:01;55.20;;;27.33;;
14992;SDS011;7592;51.088;13.732;2023-02-15T04:21:56;54.47;;;27.50;;
14992;SDS011;7592;51.088;13.732;2023-02-15T04:27:06;53.97;;;27.10;;
14992;SDS011;7592;51.088;13.732;2023-02-15T04:32:00;49.53;;;25.63;;
14992;SDS011;7592;51.088;13.732;2023-02-15T04:36:53;59.77;;;27.67;;
14992;SDS011;7592;51.088;13.732;2023-02-15T04:41:45;61.87;;;27.40;;
14992;SDS011;7592;51.088;13.732;2023-02-15T04:46:37;54.07;;;26.60;;
14992;SDS011;7592;51.088;13.732;2023-02-15T04:51:30;57.83;;;26.77;;
14992;SDS011;7592;51.088;13.732;2023-02-15T04:56:22;54.10;;;26.47;;
14992;SDS011;7592;51.088;13.732;2023-02-15T05:01:14;50.67;;;25.53;;
14992;SDS011;7592;51.088;13.732;2023-02-15T05:06:06;51.63;;;25.90;;
14992;SDS011;7592;51.088;13.732;2023-02-15T05:10:58;52.60;;;25.50;;
14992;SDS011;7592;51.088;13.732;2023-02-15T05:15:51;50.77;;;23.90;;
14992;SDS011;7592;51.088;13.732;2023-02-15T05:20:44;57.87;;;25.93;;
14992;SDS011;7592;51.088;13.732;2023-02-15T05:25:36;52.73;;;24.97;;
14992;SDS011;7592;51.088;13.732;2023-02-15T05:36:04;48.83;;;23.83;;
14992;SDS011;7592;51.088;13.732;2023-02-15T05:40:57;51.50;;;24.80;;
14992;SDS011;7592;51.088;13.732;2023-02-15T05:45:49;52.43;;;25.40;;
14992;SDS011;7592;51.088;13.732;2023-02-15T05:50:43;51.10;;;23.47;;
14992;SDS011;7592;51.088;13.732;2023-02-15T05:55:41;54.70;;;24.27;;
14992;SDS011;7592;51.088;13.732;2023-02-15T06:00:33;49.37;;;23.03;;
14992;SDS011;7592;51.088;13.732;2023-02-15T06:05:28;53.07;;;24.30;;
14992;SDS011;7592;51.088;13.732;2023-02-15T06:10:21;56.53;;;26.63;;
14992;SDS011;7592;51.088;13.732;2023-02-15T06:15:13;53.33;;;25.07;;
14992;SDS011;7592;51.088;13.732;2023-02-15T06:20:06;53.10;;;26.70;;
14992;SDS011;7592;51.088;13.732;2023-02-15T06:24:59;51.13;;;24.93;;
14992;SDS011;7592;51.088;13.732;2023-02-15T06:29:51;48.43;;;23.83;;
14992;SDS011;7592;51.088;13.732;2023-02-15T06:34:43;58.47;;;30.37;;
14992;SDS011;7592;51.088;13.732;2023-02-15T06:39:38;56.33;;;28.00;;
14992;SDS011;7592;51.088;13.732;2023-02-15T06:44:30;48.00;;;25.30;;
14992;SDS011;7592;51.088;13.732;2023-02-15T06:49:22;50.37;;;24.13;;
14992;SDS011;7592;51.088;13.732;2023-02-15T06:54:14;51.27;;;24.77;;
14992;SDS011;7592;51.088;13.732;2023-02-15T06:59:06;57.60;;;25.77;;
14992;SDS011;7592;51.088;13.732;2023-02-15T07:03:58;50.33;;;24.63;;
14992;SDS011;7592;51.088;13.732;2023-02-15T07:08:50;43.83;;;21.73;;
14992;SDS011;7592;51.088;13.732;2023-02-15T07:13:43;40.03;;;21.40;;
14992;SDS011;7592;51.088;13.732;2023-02-15T07:18:35;44.10;;;20.87;;
14992;SDS011;7592;51.088;13.732;2023-02-15T07:23:27;36.73;;;18.97;;
14992;SDS011;7592;51.088;13.732;2023-02-15T07:28:19;40.13;;;19.83;;
14992;SDS011;7592;51.088;13.732;2023-02-15T07:33:13;34.40;;;19.23;;
14992;SDS011;7592;51.088;13.732;2023-02-15T07:38:14;33.20;;;18.23;;
14992;SDS011;7592;51.088;13.732;2023-02-15T07:43:06;22.90;;;14.60;;
14992;SDS011;7592;51.088;13.732;2023-02-15T07:48:02;21.57;;;14.07;;
14992;SDS011;7592;51.088;13.732;2023-02-15T07:52:55;19.50;;;13.20;;
14992;SDS011;7592;51.088;13.732;2023-02-15T07:57:47;14.50;;;11.40;;
14992;SDS011;7592;51.088;13.732;2023-02-15T08:02:41;11.97;;;9.23;;
14992;SDS011;7592;51.088;13.732;2023-02-15T08:07:33;11.70;;;8.87;;
14992;SDS011;7592;51.088;13.732;2023-02-15T08:12:26;11.67;;;9.43;;
14992;SDS011;7592;51.088;13.732;2023-02-15T08:17:18;10.83;;;8.90;;
14992;SDS011;7592;51.088;13.732;2023-02-15T08:22:11;14.90;;;9.53;;
14992;SDS011;7592;51.088;13.732;2023-02-15T08:27:05;13.47;;;9.60;;
14992;SDS011;7592;51.088;13.732;2023-02-15T08:32:00;9.70;;;8.03;;
14992;SDS011;7592;51.088;13.732;2023-02-15T08:36:54;11.87;;;9.40;;
14992;SDS011;7592;51.088;13.732;2023-02-15T08:41:46;11.17;;;9.20;;
14992;SDS011;7592;51.088;13.732;2023-02-15T08:46:40;11.90;;;9.67;;
14992;SDS011;7592;51.088;13.732;2023-02-15T08:51:34;12.13;;;9.03;;
14992;SDS011;7592;51.088;13.732;2023-02-15T08:56:29;11.67;;;8.30;;
14992;SDS011;7592;51.088;13.732;2023-02-15T09:01:24;10.20;;;8.53;;
14992;SDS011;7592;51.088;13.732;2023-02-15T09:06:18;9.77;;;7.50;;
14992;SDS011;7592;51.088;13.732;2023-02-15T09:11:13;10.73;;;8.13;;
14992;SDS011;7592;51.088;13.732;2023-02-15T09:16:16;11.47;;;8.47;;
14992;SDS011;7592;51.088;13.732;2023-02-15T09:21:10;11.47;;;8.77;;
14992;SDS011;7592;51.088;13.732;2023-02-15T09:26:07;10.10;;;7.53;;
14992;SDS011;7592;51.088;13.732;2023-02-15T09:31:05;10.07;;;8.40;;
14992;SDS011;7592;51.088;13.732;2023-02-15T09:35:57;10.47;;;9.00;;
14992;SDS011;7592;51.088;13.732;2023-02-15T09:40:52;9.63;;;8.43;;
14992;SDS011;7592;51.088;13.732;2023-02-15T09:46:42;11.27;;;9.80;;
14992;SDS011;7592;51.088;13.732;2023-02-15T09:56:24;10.97;;;9.37;;
14992;SDS011;7592;51.088;13.732;2023-02-15T10:01:35;12.43;;;10.33;;
14992;SDS011;7592;51.088;13.732;2023-02-15T10:22:14;12.13;;;10.73;;
14992;SDS011;7592;51.088;13.732;2023-02-15T10:27:11;14.57;;;11.33;;
14992;SDS011;7592;51.088;13.732;2023-02-15T10:32:15;15.73;;;11.13;;
14992;SDS011;7592;51.088;13.732;2023-02-15T10:42:16;18.10;;;12.53;;
14992;SDS011;7592;51.088;13.732;2023-02-15T10:57:40;15.23;;;11.57;;
14992;SDS011;7592;51.088;13.732;2023-02-15T11:07:57;15.23;;;12.30;;
14992;SDS011;7592;51.088;13.732;2023-02-15T11:12:51;14.33;;;11.97;;
14992;SDS011;7592;51.088;13.732;2023-02-15T11:17:47;13.10;;;11.70;;
14992;SDS011;7592;51.088;13.732;2023-02-15T11:22:50;12.53;;;10.93;;
14992;SDS011;7592;51.088;13.732;2023-02-15T11:27:45;14.00;;;11.57;;
14992;SDS011;7592;51.088;13.732;2023-02-15T11:32:40;12.07;;;10.37;;
14992;SDS011;7592;51.088;13.732;2023-02-15T11:37:53;11.93;;;10.70;;
14992;SDS011;7592;51.088;13.732;2023-02-15T11:43:06;12.70;;;11.27;;
14992;SDS011;7592;51.088;13.732;2023-02-15T11:48:17;15.57;;;11.37;;
14992;SDS011;7592;51.088;13.732;2023-02-15T11:53:11;12.87;;;9.97;;
14992;SDS011;7592;51.088;13.732;2023-02-15T12:08:39;13.20;;;10.47;;
14992;SDS011;7592;51.088;13.732;2023-02-15T12:13:35;14.40;;;11.43;;
14992;SDS011;7592;51.088;13.732;2023-02-15T12:18:34;17.77;;;12.20;;
14992;SDS011;7592;51.088;13.732;2023-02-15T12:23:30;13.33;;;10.33;;
14992;SDS011;7592;51.088;13.732;2023-02-15T12:28:30;16.33;;;11.57;;
14992;SDS011;7592;51.088;13.732;2023-02-15T12:33:35;15.87;;;11.60;;
14992;SDS011;7592;51.088;13.732;2023-02-15T12:38:33;16.50;;;11.70;;
14992;SDS011;7592;51.088;13.732;2023-02-15T12:43:31;15.57;;;11.27;;
14992;SDS011;7592;51.088;13.732;2023-02-15T12:48:25;17.47;;;11.50;;
14992;SDS011;7592;51.088;13.732;2023-02-15T12:53:18;14.93;;;11.23;;
14992;SDS011;7592;51.088;13.732;2023-02-15T12:58:21;17.90;;;12.33;;
14992;SDS011;7592;51.088;13.732;2023-02-15T13:03:21;16.33;;;11.60;;
14992;SDS011;7592;51.088;13.732;2023-02-15T13:08:16;17.27;;;11.97;;
14992;SDS011;7592;51.088;13.732;2023-02-15T13:13:31;16.73;;;12.13;;
14992;SDS011;7592;51.088;13.732;2023-02-15T13:18:35;17.00;;;12.77;;
14992;SDS011;7592;51.088;13.732;2023-02-15T13:23:33;17.63;;;11.57;;
14992;SDS011;7592;51.088;13.732;2023-02-15T13:28:48;17.23;;;12.77;;
14992;SDS011;7592;51.088;13.732;2023-02-15T13:33:51;16.67;;;12.27;;
14992;SDS011;7592;51.088;13.732;2023-02-15T13:43:54;19.30;;;13.03;;
14992;SDS011;7592;51.088;13.732;2023-02-15T13:54:20;18.13;;;13.33;;
14992;SDS011;7592;51.088;13.732;2023-02-15T14:25:48;18.83;;;13.90;;
14992;SDS011;7592;51.088;13.732;2023-02-15T14:30:49;18.67;;;13.47;;
14992;SDS011;7592;51.088;13.732;2023-02-15T14:35:42;20.40;;;14.47;;
14992;SDS011;7592;51.088;13.732;2023-02-15T14:46:11;21.90;;;15.87;;
14992;SDS011;7592;51.088;13.732;2023-02-15T14:56:41;21.00;;;14.87;;
14992;SDS011;7592;51.088;13.732;2023-02-15T15:01:35;23.33;;;17.03;;
14992;SDS011;7592;51.088;13.732;2023-02-15T15:06:29;22.23;;;16.30;;
14992;SDS011;7592;51.088;13.732;2023-02-15T15:26:40;24.90;;;17.23;;
14992;SDS011;7592;51.088;13.732;2023-02-15T15:31:45;29.77;;;19.07;;
14992;SDS011;7592;51.088;13.732;2023-02-15T15:42:21;36.37;;;21.03;;
14992;SDS011;7592;51.088;13.732;2023-02-15T15:52:58;27.43;;;18.77;;
14992;SDS011;7592;51.088;13.732;2023-02-15T15:57:53;33.80;;;20.57;;
14992;SDS011;7592;51.088;13.732;2023-02-15T16:02:54;35.80;;;22.57;;
14992;SDS011;7592;51.088;13.732;2023-02-15T16:07:48;32.17;;;20.97;;
14992;SDS011;7592;51.088;13.732;2023-02-15T16:12:40;34.00;;;18.83;;
14992;SDS011;7592;51.088;13.732;2023-02-15T16:17:32;32.13;;;20.33;;
14992;SDS011;7592;51.088;13.732;2023-02-15T16:22:25;29.67;;;19.80;;
14992;SDS011;7592;51.088;13.732;2023-02-15T16:32:35;35.00;;;20.30;;
14992;SDS011;7592;51.088;13.732;2023-02-15T16:37:31;31.10;;;20.33;;
14992;SDS011;7592;51.088;13.732;2023-02-15T16:42:24;30.40;;;20.37;;
14992;SDS011;7592;51.088;13.732;2023-02-15T16:47:27;29.93;;;18.73;;
14992;SDS011;7592;51.088;13.732;2023-02-15T16:52:23;34.40;;;21.03;;
14992;SDS011;7592;51.088;13.732;2023-02-15T16:57:21;36.30;;;21.73;;
14992;SDS011;7592;51.088;13.732;2023-02-15T17:02:17;34.73;;;22.37;;
14992;SDS011;7592;51.088;13.732;2023-02-15T17:07:31;33.83;;;21.23;;
14992;SDS011;7592;51.088;13.732;2023-02-15T17:17:47;33.07;;;21.50;;
14992;SDS011;7592;51.088;13.732;2023-02-15T17:22:40;39.93;;;22.63;;
14992;SDS011;7592;51.088;13.732;2023-02-15T17:27:32;35.27;;;22.00;;
14992;SDS011;7592;51.088;13.732;2023-02-15T17:32:27;35.63;;;21.93;;
14992;SDS011;7592;51.088;13.732;2023-02-15T17:37:25;34.27;;;21.53;;
14992;SDS011;7592;51.088;13.732;2023-02-15T17:42:34;40.17;;;23.87;;
14992;SDS011;7592;51.088;13.732;2023-02-15T17:47:26;40.37;;;21.30;;
14992;SDS011;7592;51.088;13.732;2023-02-15T17:52:20;39.23;;;22.10;;
14992;SDS011;7592;51.088;13.732;2023-02-15T17:57:13;40.43;;;22.40;;
14992;SDS011;7592;51.088;13.732;2023-02-15T18:02:07;38.80;;;23.10;;
14992;SDS011;7592;51.088;13.732;2023-02-15T18:07:20;40.03;;;22.90;;
14992;SDS011;7592;51.088;13.732;2023-02-15T18:12:34;39.73;;;23.63;;
14992;SDS011;7592;51.088;13.732;2023-02-15T18:17:39;39.37;;;24.00;;
14992;SDS011;7592;51.088;13.732;2023-02-15T18:22:34;39.27;;;22.90;;
14992;SDS011;7592;51.088;13.732;2023-02-15T18:27:27;42.73;;;23.83;;
14992;SDS011;7592;51.088;13.732;2023-02-15T18:32:24;40.27;;;23.07;;
14992;SDS011;7592;51.088;13.732;2023-02-15T18:37:23;39.03;;;23.03;;
14992;SDS011;7592;51.088;13.732;2023-02-15T18:42:20;42.77;;;23.60;;
14992;SDS011;7592;51.088;13.732;2023-02-15T18:47:13;43.83;;;22.53;;
14992;SDS011;7592;51.088;13.732;2023-02-15T18:52:05;44.40;;;24.10;;
14992;SDS011;7592;51.088;13.732;2023-02-15T18:57:00;45.33;;;24.33;;
14992;SDS011;7592;51.088;13.732;2023-02-15T19:01:54;42.53;;;23.90;;
14992;SDS011;7592;51.088;13.732;2023-02-15T19:06:47;41.20;;;22.90;;
14992;SDS011;7592;51.088;13.732;2023-02-15T19:11:40;44.70;;;23.53;;
14992;SDS011;7592;51.088;13.732;2023-02-15T19:16:33;43.03;;;23.07;;
14992;SDS011;7592;51.088;13.732;2023-02-15T19:21:26;42.70;;;24.43;;
14992;SDS011;7592;51.088;13.732;2023-02-15T19:26:21;45.23;;;23.90;;
14992;SDS011;7592;51.088;13.732;2023-02-15T19:31:30;42.27;;;24.20;;
14992;SDS011;7592;51.088;13.732;2023-02-15T19:36:25;46.33;;;24.87;;
14992;SDS011;7592;51.088;13.732;2023-02-15T19:41:31;48.57;;;24.63;;
14992;SDS011;7592;51.088;13.732;2023-02-15T19:46:25;38.97;;;22.80;;
14992;SDS011;7592;51.088;13.732;2023-02-15T19:51:17;43.93;;;23.37;;
14992;SDS011;7592;51.088;13.732;2023-02-15T19:56:12;47.30;;;25.10;;
14992;SDS011;7592;51.088;13.732;2023-02-15T20:01:08;43.00;;;24.73;;
14992;SDS011;7592;51.088;13.732;2023-02-15T20:06:00;44.93;;;23.63;;
14992;SDS011;7592;51.088;13.732;2023-02-15T20:10:53;45.03;;;23.37;;
14992;SDS011;7592;51.088;13.732;2023-02-15T20:15:45;46.67;;;25.00;;
14992;SDS011;7592;51.088;13.732;2023-02-15T20:20:42;44.63;;;24.47;;
14992;SDS011;7592;51.088;13.732;2023-02-15T20:25:37;43.00;;;24.20;;
14992;SDS011;7592;51.088;13.732;2023-02-15T20:30:29;45.17;;;25.13;;
14992;SDS011;7592;51.088;13.732;2023-02-15T20:35:25;41.43;;;24.20;;
14992;SDS011;7592;51.088;13.732;2023-02-15T20:40:23;45.57;;;24.00;;
14992;SDS011;7592;51.088;13.732;2023-02-15T20:45:22;46.47;;;25.10;;
14992;SDS011;7592;51.088;13.732;2023-02-15T20:50:20;49.00;;;25.87;;
14992;SDS011;7592;51.088;13.732;2023-02-15T20:55:20;48.57;;;24.83;;
14992;SDS011;7592;51.088;13.732;2023-02-15T21:00:18;45.93;;;24.93;;
14992;SDS011;7592;51.088;13.732;2023-02-15T21:05:22;39.70;;;22.50;;
14992;SDS011;7592;51.088;13.732;2023-02-15T21:10:20;42.07;;;22.03;;
14992;SDS011;7592;51.088;13.732;2023-02-15T21:15:33;44.57;;;23.97;;
14992;SDS011;7592;51.088;13.732;2023-02-15T21:20:32;44.97;;;25.17;;
14992;SDS011;7592;51.088;13.732;2023-02-15T21:25:28;51.40;;;26.07;;
14992;SDS011;7592;51.088;13.732;2023-02-15T21:30:25;44.80;;;25.10;;
14992;SDS011;7592;51.088;13.732;2023-02-15T21:35:17;43.13;;;24.00;;
14992;SDS011;7592;51.088;13.732;2023-02-15T21:40:18;36.37;;;22.83;;
14992;SDS011;7592;51.088;13.732;2023-02-15T21:45:20;45.50;;;24.60;;
14992;SDS011;7592;51.088;13.732;2023-02-15T21:50:30;39.27;;;21.77;;
14992;SDS011;7592;51.088;13.732;2023-02-15T21:55:41;39.97;;;22.73;;
14992;SDS011;7592;51.088;13.732;2023-02-15T22:00:33;39.33;;;23.23;;
14992;SDS011;7592;51.088;13.732;2023-02-15T22:05:31;34.87;;;21.80;;
14992;SDS011;7592;51.088;13.732;2023-02-15T22:10:26;39.43;;;23.50;;
14992;SDS011;7592;51.088;13.732;2023-02-15T22:15:23;41.83;;;23.00;;
14992;SDS011;7592;51.088;13.732;2023-02-15T22:20:20;39.97;;;22.73;;
14992;SDS011;7592;51.088;13.732;2023-02-15T22:25:14;46.20;;;24.03;;
14992;SDS011;7592;51.088;13.732;2023-02-15T22:35:32;41.70;;;23.10;;
14992;SDS011;7592;51.088;13.732;2023-02-15T22:40:30;43.40;;;23.27;;
14992;SDS011;7592;51.088;13.732;2023-02-15T22:45:24;41.73;;;23.23;;
14992;SDS011;7592;51.088;13.732;2023-02-15T22:55:22;38.97;;;22.47;;
14992;SDS011;7592;51.088;13.732;2023-02-15T23:00:18;38.20;;;22.27;;
14992;SDS011;7592;51.088;13.732;2023-02-15T23:05:16;35.20;;;20.90;;
14992;SDS011;7592;51.088;13.732;2023-02-15T23:10:17;38.37;;;21.40;;
14992;SDS011;7592;51.088;13.732;2023-02-15T23:15:13;38.53;;;21.17;;
14992;SDS011;7592;51.088;13.732;2023-02-15T23:20:05;40.10;;;22.23;;
14992;SDS011;7592;51.088;13.732;2023-02-15T23:25:07;43.30;;;23.30;;
14992;SDS011;7592;51.088;13.732;2023-02-15T23:30:05;39.47;;;22.37;;
14992;SDS011;7592;51.088;13.732;2023-02-15T23:35:14;35.27;;;21.20;;
14992;SDS011;7592;51.088;13.732;2023-02-15T23:40:12;43.60;;;22.10;;
14992;SDS011;7592;51.088;13.732;2023-02-15T23:45:24;39.73;;;22.07;;
14992;SDS011;7592;51.088;13.732;2023-02-15T23:50:17;39.17;;;23.23;;
14992;SDS011;7592;51.088;13.732;2023-02-15T23:55:14;41.27;;;22.20;;
